ベルリン・テーゲル国際空港の過去48時間の天気

ベルリン・テーゲル国際空港 (Berlin-Tegel)

現在時刻: 9/16 05:07 CEST (9/16 03:07 UTC) 以下の時間は現地時間です。

過去48時間のMETAR気象情報
時間 風向 風速(m/s) 視程 気温(℃) 湿度(%) 気圧(hPa) 天気現象
16 04:50 西北西 4 10km以上 13 82 1019
16 04:20 西北西 5 10km以上 14 77 1018
16 03:50 西北西 4 10km以上 14 82 1019
16 03:20 西 4 10km以上 14 82 1019
16 02:50 西 3 10km以上 14 82 1019
16 02:20 西 3 10km以上 14 82 1019
16 01:50 北西 4 10km以上 15 72 1019
16 01:20 西北西 4 10km以上 15 77 1019
16 00:50 西北西 4 10km以上 15 82 1019
16 00:20 西 4 10km以上 15 82 1018
15 23:50 西 4 10km以上 15 88 1018
15 23:20 西北西 5 10km以上 15 88 1018
15 22:50 西北西 4 10km以上 16 94 1018 弱い雨 弱い霧雨
15 22:20 北西 6 6000m 17 83 1018 弱い雨 弱い霧雨
15 21:50 西北西 6 10km以上 18 77 1017
15 21:20 北西 5 10km以上 19 68 1017
15 20:50 北西 6 10km以上 19 68 1017
15 20:20 西北西 4 10km以上 21 46 1017
15 19:50 西南西 4 10km以上 20 37 1016
15 19:20 西南西 4 10km以上 21 35 1016
15 18:50 西 6 10km以上 22 31 1016
15 18:20 西 7 10km以上 22 31 1016
15 17:50 西 8 10km以上 23 29 1017
15 17:20 西 10 10km以上 23 25 1017
15 16:50 西 8 10km以上 23 23 1017
15 16:20 西 7 10km以上 24 22 1017
15 15:50 西 9 10km以上 24 21 1017
15 15:20 西 8 10km以上 23 23 1018
15 14:50 西南西 9 10km以上 23 23 1018
15 14:20 西 9 10km以上 23 23 1018
15 13:50 西南西 6 10km以上 21 35 1019
15 13:20 西 7 10km以上 21 35 1019
15 12:50 西南西 8 10km以上 20 35 1019
15 12:20 西 7 10km以上 20 40 1020
15 11:50 西 6 10km以上 19 49 1020
15 11:20 西 7 10km以上 19 49 1020
15 10:50 西 7 10km以上 18 52 1020
15 10:20 西南西 7 10km以上 18 56 1020
15 09:50 西 6 10km以上 17 55 1021
15 09:20 西南西 5 10km以上 16 59 1021
15 08:50 南南西 3 10km以上 15 63 1021
15 08:20 南南西 3 10km以上 13 67 1021
15 07:50 南南西 3 10km以上 12 67 1022
15 07:20 南南西 2 10km以上 11 71 1022
15 06:50 南南西 2 10km以上 10 76 1022
15 06:20 不定 1 10km以上 10 76 1023
15 05:50 2 10km以上 10 76 1023
15 05:20 3 10km以上 10 76 1023
15 04:50 3 10km以上 11 71 1024
15 04:20 3 10km以上 10 76 1025
15 03:50 3 10km以上 11 71 1025
15 03:20 2 10km以上 10 76 1025
15 02:50 2 10km以上 10 76 1026
15 02:20 南西 1 10km以上 10 76 1026
15 01:50 不定 1 10km以上 10 76 1026
15 01:20 南南東 2 10km以上 9 87 1027
15 00:50 静穏 0 10km以上 9 87 1027
15 00:20 不定 1 10km以上 10 82 1028
14 23:50 南東 1 10km以上 10 82 1028
14 23:20 南西 1 10km以上 10 82 1029
14 22:50 不定 1 10km以上 11 76 1029
14 22:20 不定 1 10km以上 12 67 1029
14 21:50 不定 1 10km以上 12 67 1029
14 21:20 不定 1 10km以上 12 67 1030
14 20:50 不定 1 10km以上 13 67 1030
14 20:20 不定 1 10km以上 13 62 1030
14 19:50 1 10km以上 15 51 1030
14 19:20 北西 1 10km以上 17 45 1030
14 18:50 北北西 2 10km以上 17 45 1030
14 18:20 北西 2 10km以上 18 42 1030
14 17:50 不定 1 10km以上 19 43 1030
14 17:20 西 2 10km以上 19 40 1031
14 16:50 西 3 10km以上 19 40 1031
14 16:20 西 3 10km以上 19 40 1032
14 15:50 3 10km以上 18 42 1032
14 15:20 3 10km以上 18 45 1032
14 14:50 3 10km以上 18 42 1033
14 14:20 3 10km以上 18 45 1033
14 13:50 不定 2 10km以上 18 45 1033
14 13:20 3 10km以上 18 45 1033
14 12:50 西 3 10km以上 17 48 1034
14 12:20 西北西 2 10km以上 17 55 1034
14 11:50 不定 2 10km以上 16 59 1034
14 11:20 西北西 3 10km以上 16 59 1035
14 10:50 不定 2 10km以上 15 67 1035
14 10:20 西 2 10km以上 15 72 1035
14 09:50 不定 1 10km以上 14 72 1034
14 09:20 西 2 10km以上 13 77 1034
14 08:50 西北西 2 10km以上 11 87 1034
14 08:20 西南西 2 10km以上 10 87 1034
14 07:50 西 2 10km以上 9 93 1034
14 07:20 西南西 2 10km以上 7 100 1034
14 06:50 不定 1 10km以上 7 93 1034
14 06:20 西南西 2 10km以上 7 93 1034
14 05:50 西南西 2 10km以上 7 93 1034
14 05:20 西南西 2 10km以上 7 93 1034
EDDT 160250Z 29007KT 250V320 9999 FEW022 13/10 Q1019 NOSIG
EDDT 160220Z 29009KT 260V320 9999 SCT022 14/10 Q1018
EDDT 160150Z 29008KT 250V320 9999 SCT022 14/11 Q1019
EDDT 160120Z 28007KT 250V330 9999 SCT024 14/11 Q1019
EDDT 160050Z 28006KT 9999 FEW022 14/11 Q1019
EDDT 160020Z 28005KT 260V320 9999 FEW025 14/11 Q1019
EDDT 152350Z 31007KT 260V330 9999 FEW030 15/10 Q1019
EDDT 152320Z 29008KT 270V330 9999 SCT030 15/11 Q1019
EDDT 152250Z 29008KT 260V320 9999 SCT048 15/12 Q1019
EDDT 152220Z 28008KT 250V310 9999 BKN045 15/12 Q1018
EDDT 152150Z 27008KT 9999 BKN038 15/13 Q1018
EDDT 152120Z 29009KT 9999 BKN035 15/13 Q1018
EDDT 152050Z 29008KT 240V320 9999 -RADZ FEW011 BKN043 16/15 Q1018 NOSIG
EDDT 152020Z 31011KT 270V360 6000 -RADZ SCT015 BKN040 17/14 Q1018 NOSIG
EDDT 151950Z 30012KT 270V340 9999 FEW020 BKN048 18/14 Q1017 NOSIG
EDDT 151920Z 31010KT 260V350 9999 SCT025 19/13 Q1017 NOSIG
EDDT 151850Z 32011KT 290V360 CAVOK 19/13 Q1017 NOSIG
EDDT 151820Z 30008KT 260V340 CAVOK 21/09 Q1017 NOSIG
EDDT 151750Z 25007KT CAVOK 20/05 Q1016 NOSIG
EDDT 151720Z 25008KT CAVOK 21/05 Q1016 TEMPO 26015G25KT
EDDT 151650Z 26011KT CAVOK 22/04 Q1016 TEMPO 26015G25KT
EDDT 151620Z 27014KT CAVOK 22/04 Q1016 TEMPO 27015G25KT
EDDT 151550Z 26015KT CAVOK 23/04 Q1017 TEMPO 26015G25KT
EDDT 151520Z 27020KT CAVOK 23/02 Q1017 TEMPO 27015G25KT
EDDT 151450Z 27015KT CAVOK 23/01 Q1017 TEMPO 27015G25KT
EDDT 151420Z 26014KT 230V300 CAVOK 24/01 Q1017 TEMPO 26015G25KT
EDDT 151350Z 26017KT CAVOK 24/M00 Q1017 TEMPO 26015G25KT
EDDT 151320Z 27016KT CAVOK 23/01 Q1018 TEMPO 27015G25KT
EDDT 151250Z 25017KT 220V280 CAVOK 23/01 Q1018 TEMPO 25015G25KT
EDDT 151220Z 26017KT 230V290 CAVOK 23/01 Q1018 TEMPO 26015G25KT
EDDT 151150Z 25011KT CAVOK 21/05 Q1019 TEMPO 25015G25KT
EDDT 151120Z 26013KT CAVOK 21/05 Q1019 TEMPO 26015G25KT
EDDT 151050Z 25015KT CAVOK 20/04 Q1019 TEMPO 25015G25KT
EDDT 151020Z 26014KT CAVOK 20/06 Q1020 TEMPO 26015G25KT
EDDT 150950Z 26012KT 230V290 CAVOK 19/08 Q1020 TEMPO 26015G25KT
EDDT 150920Z 26013KT CAVOK 19/08 Q1020 NOSIG
EDDT 150850Z 26013KT CAVOK 18/08 Q1020 NOSIG
EDDT 150820Z 24013KT CAVOK 18/09 Q1020 NOSIG
EDDT 150750Z 26012KT CAVOK 17/08 Q1021 NOSIG
EDDT 150720Z 24010KT CAVOK 16/08 Q1021 NOSIG
EDDT 150650Z 21006KT CAVOK 15/08 Q1021 NOSIG
EDDT 150620Z 20005KT CAVOK 13/07 Q1021 NOSIG
EDDT 150550Z 21005KT CAVOK 12/06 Q1022 NOSIG
EDDT 150520Z 20004KT 180V240 CAVOK 11/06 Q1022 NOSIG
EDDT 150450Z 20004KT 160V240 CAVOK 10/06 Q1022 NOSIG
EDDT 150420Z VRB02KT CAVOK 10/06 Q1023 NOSIG
EDDT 150350Z 19003KT CAVOK 10/06 Q1023 NOSIG
EDDT 150320Z 19005KT CAVOK 10/06 Q1023 NOSIG
EDDT 150250Z 18006KT CAVOK 11/06 Q1024 NOSIG
EDDT 150220Z 19005KT CAVOK 10/06 Q1025
EDDT 150150Z 19005KT CAVOK 11/06 Q1025
EDDT 150120Z 19004KT CAVOK 10/06 Q1025
EDDT 150050Z 18003KT 100V270 CAVOK 10/06 Q1026
EDDT 150020Z 22001KT CAVOK 10/06 Q1026
EDDT 142350Z VRB02KT CAVOK 10/06 Q1026
EDDT 142320Z 16003KT 130V190 CAVOK 09/07 Q1027
EDDT 142250Z 00000KT CAVOK 09/07 Q1027
EDDT 142220Z VRB01KT CAVOK 10/07 Q1028
EDDT 142150Z 14001KT CAVOK 10/07 Q1028 NOSIG
EDDT 142120Z 22001KT CAVOK 10/07 Q1029 NOSIG
EDDT 142050Z VRB01KT CAVOK 11/07 Q1029 NOSIG
EDDT 142020Z VRB01KT CAVOK 12/06 Q1029 NOSIG
EDDT 141950Z VRB02KT CAVOK 12/06 Q1029 NOSIG
EDDT 141920Z VRB01KT CAVOK 12/06 Q1030 NOSIG
EDDT 141850Z VRB01KT CAVOK 13/07 Q1030 NOSIG
EDDT 141820Z VRB01KT CAVOK 13/06 Q1030 NOSIG
EDDT 141750Z 36001KT CAVOK 15/05 Q1030 NOSIG
EDDT 141720Z 31002KT CAVOK 17/05 Q1030 NOSIG
EDDT 141650Z 33003KT CAVOK 17/05 Q1030 NOSIG
EDDT 141620Z 31004KT 190V340 CAVOK 18/05 Q1030 NOSIG
EDDT 141550Z VRB02KT CAVOK 19/06 Q1030 NOSIG
EDDT 141520Z 27003KT 210V340 CAVOK 19/05 Q1031 NOSIG
EDDT 141450Z 28005KT 250V350 CAVOK 19/05 Q1031 NOSIG
EDDT 141420Z 27005KT 220V330 CAVOK 19/05 Q1032 NOSIG
EDDT 141350Z VRB05KT CAVOK 18/05 Q1032 NOSIG
EDDT 141320Z VRB05KT CAVOK 18/06 Q1032 NOSIG
EDDT 141250Z VRB06KT CAVOK 18/05 Q1033 NOSIG
EDDT 141220Z VRB05KT CAVOK 18/06 Q1033 NOSIG
EDDT 141150Z VRB04KT CAVOK 18/06 Q1033 NOSIG
EDDT 141120Z VRB05KT 9999 FEW048 18/06 Q1033 NOSIG
EDDT 141050Z 27005KT 210V350 9999 FEW044 17/06 Q1034 NOSIG
EDDT 141020Z 30004KT 260V360 9999 SCT038 17/08 Q1034 NOSIG
EDDT 140950Z VRB03KT 9999 SCT035 16/08 Q1034 NOSIG
EDDT 140920Z 29005KT 190V360 9999 SCT030 16/08 Q1035 NOSIG
EDDT 140850Z VRB03KT 9999 SCT024 15/09 Q1035 NOSIG
EDDT 140820Z 28004KT 190V330 CAVOK 15/10 Q1035 NOSIG
EDDT 140750Z VRB02KT CAVOK 14/09 Q1034 NOSIG
EDDT 140720Z 27003KT 230V330 CAVOK 13/09 Q1034 NOSIG
EDDT 140650Z 30003KT 240V360 CAVOK 11/09 Q1034 NOSIG
EDDT 140620Z 25003KT CAVOK 10/08 Q1034 NOSIG
EDDT 140550Z 26003KT CAVOK 09/08 Q1034 NOSIG
EDDT 140520Z 25003KT CAVOK 07/07 Q1034 NOSIG
EDDT 140450Z VRB01KT CAVOK 07/06 Q1034 NOSIG
EDDT 140420Z 25003KT CAVOK 07/06 Q1034 NOSIG
EDDT 140350Z 25004KT CAVOK 07/06 Q1034 NOSIG
EDDT 140320Z 24003KT CAVOK 07/06 Q1034 NOSIG